createdAt,value
2018-12-19T00:00:46.600Z,2.31
2018-12-19T00:03:16.622Z,2.69
2018-12-19T00:05:46.095Z,2.37
2018-12-19T00:08:13.017Z,2.44
2018-12-19T00:10:40.143Z,2.62
2018-12-19T00:13:08.027Z,2.62
2018-12-19T00:15:35.153Z,2.56
2018-12-19T00:18:07.629Z,2.81
2018-12-19T00:20:34.799Z,2.56
2018-12-19T00:23:01.742Z,2.69
2018-12-19T00:25:28.759Z,2.31
2018-12-19T00:27:55.731Z,2.75
2018-12-19T00:30:22.767Z,2.56
2018-12-19T00:32:52.153Z,2.62
2018-12-19T00:35:21.925Z,2.44
2018-12-19T00:37:49.646Z,2.69
2018-12-19T00:40:17.207Z,2.56
2018-12-19T00:42:44.253Z,2.56
2018-12-19T00:45:11.242Z,2.81
2018-12-19T00:47:38.448Z,2.62
2018-12-19T00:50:06.128Z,2.69
2018-12-19T00:52:33.263Z,2.62
2018-12-19T00:55:00.248Z,2.56
2018-12-19T00:57:27.256Z,2.62
2018-12-19T00:59:54.299Z,2.44
2018-12-19T01:02:21.289Z,2.44
2018-12-19T01:04:48.317Z,2.50
2018-12-19T01:07:15.674Z,2.62
2018-12-19T01:09:42.671Z,2.44
2018-12-19T01:12:09.747Z,2.75
2018-12-19T01:14:37.051Z,2.56
2018-12-19T01:17:05.002Z,2.62
2018-12-19T01:19:31.966Z,2.44
2018-12-19T01:21:59.984Z,2.62
2018-12-19T01:24:26.970Z,2.56
2018-12-19T01:26:53.984Z,2.31
2018-12-19T01:29:20.927Z,2.37
2018-12-19T01:31:47.888Z,2.62
2018-12-19T01:34:14.861Z,2.62
2018-12-19T01:36:41.846Z,2.37
2018-12-19T01:39:08.837Z,2.50
2018-12-19T01:41:36.719Z,2.44
2018-12-19T01:44:03.691Z,2.37
2018-12-19T01:46:31.489Z,2.37
2018-12-19T01:48:58.433Z,2.50
2018-12-19T01:51:25.415Z,2.44
2018-12-19T01:53:53.350Z,2.25
2018-12-19T01:56:20.336Z,2.56
2018-12-19T01:58:47.551Z,2.44
2018-12-19T02:01:14.549Z,2.50
2018-12-19T02:03:42.054Z,2.50
2018-12-19T02:06:09.082Z,2.50
2018-12-19T02:08:36.886Z,2.31
2018-12-19T02:11:03.882Z,2.56
2018-12-19T02:13:30.860Z,2.37
2018-12-19T02:15:57.915Z,2.37
2018-12-19T02:18:24.902Z,2.44
2018-12-19T02:20:51.948Z,2.19
2018-12-19T02:28:14.715Z,2.19
2018-12-19T02:30:41.756Z,2.19
2018-12-19T02:33:08.743Z,2.06
2018-12-19T02:35:35.700Z,2.25
2018-12-19T02:38:02.633Z,2.56
2018-12-19T02:40:29.681Z,2.37
2018-12-19T02:42:56.635Z,2.37
2018-12-19T02:45:23.620Z,2.25
2018-12-19T02:47:50.597Z,2.37
2018-12-19T02:50:18.526Z,2.12
2018-12-19T02:52:45.480Z,2.06
2018-12-19T02:55:12.479Z,2.19
2018-12-19T02:57:39.463Z,2.31
2018-12-19T03:00:06.755Z,2.56
2018-12-19T03:02:33.777Z,2.56
2018-12-19T03:05:00.685Z,2.37
2018-12-19T03:07:27.619Z,2.37
2018-12-19T03:09:54.570Z,2.25
2018-12-19T03:12:22.080Z,2.19
2018-12-19T03:14:49.725Z,2.19
2018-12-19T03:17:16.722Z,2.31
2018-12-19T03:19:45.035Z,2.37
2018-12-19T03:22:12.087Z,2.37
2018-12-19T03:24:39.274Z,2.25
2018-12-19T03:27:06.300Z,2.31
2018-12-19T03:29:33.328Z,2.25
2018-12-19T03:32:00.331Z,2.12
2018-12-19T03:34:27.943Z,2.25
2018-12-19T03:36:54.970Z,2.19
2018-12-19T03:39:21.951Z,2.00
2018-12-19T03:41:49.187Z,2.62
2018-12-19T03:44:16.186Z,2.19
2018-12-19T03:46:43.217Z,2.44
2018-12-19T03:49:10.243Z,2.37
2018-12-19T03:51:37.537Z,2.31
2018-12-19T03:54:04.570Z,2.06
2018-12-19T03:56:31.588Z,2.06
2018-12-19T03:58:59.281Z,2.37
2018-12-19T04:01:26.422Z,2.25
2018-12-19T04:03:53.354Z,2.19
2018-12-19T04:06:20.334Z,2.31
2018-12-19T04:08:47.270Z,2.12
2018-12-19T04:11:14.291Z,2.62
2018-12-19T04:13:41.241Z,2.44
2018-12-19T04:16:08.284Z,2.37
2018-12-19T04:18:35.374Z,2.19
2018-12-19T04:21:02.436Z,2.25
2018-12-19T04:23:29.415Z,2.62
2018-12-19T04:25:56.451Z,2.50
2018-12-19T04:28:23.473Z,2.44
2018-12-19T04:30:50.695Z,2.31
2018-12-19T04:33:17.690Z,2.37
2018-12-19T04:35:44.720Z,2.12
2018-12-19T04:38:12.041Z,2.37
2018-12-19T04:40:40.004Z,2.31
2018-12-19T04:43:07.045Z,2.31
2018-12-19T04:45:34.077Z,2.37
2018-12-19T04:48:24.150Z,2.37
2018-12-19T04:50:51.107Z,2.56
2018-12-19T04:53:18.163Z,2.25
2018-12-19T04:55:45.150Z,2.62
2018-12-19T04:58:12.165Z,2.69
2018-12-19T05:00:39.295Z,2.31
2018-12-19T05:03:06.289Z,2.69
2018-12-19T05:05:33.299Z,2.25
2018-12-19T05:08:00.315Z,2.69
2018-12-19T05:10:27.400Z,2.69
2018-12-19T05:12:54.916Z,2.50
2018-12-19T05:15:22.036Z,2.62
2018-12-19T05:17:49.050Z,2.69
2018-12-19T05:20:15.999Z,2.75
2018-12-19T05:22:43.074Z,2.37
2018-12-19T05:25:12.578Z,2.37
2018-12-19T05:27:39.620Z,2.44
2018-12-19T05:30:06.617Z,2.62
2018-12-19T05:32:33.741Z,2.31
2018-12-19T05:35:00.749Z,2.75
2018-12-19T05:37:27.683Z,2.87
2018-12-19T05:39:54.733Z,2.75
2018-12-19T05:42:21.787Z,2.94
2018-12-19T05:44:48.837Z,2.81
2018-12-19T05:47:15.887Z,2.75
2018-12-19T05:49:42.964Z,2.50
2018-12-19T05:55:03.392Z,2.62
2018-12-19T05:57:30.366Z,2.56
2018-12-19T05:59:57.413Z,2.81
2018-12-19T06:02:24.394Z,2.75
2018-12-19T06:04:51.429Z,2.62
2018-12-19T06:07:18.448Z,2.69
2018-12-19T06:09:45.380Z,2.62
2018-12-19T06:12:12.464Z,2.87
2018-12-19T06:14:39.459Z,2.69
2018-12-19T06:17:06.469Z,2.62
2018-12-19T06:19:33.528Z,2.69
2018-12-19T06:22:00.537Z,3.00
2018-12-19T06:24:27.583Z,2.81
2018-12-19T06:26:54.577Z,2.62
2018-12-19T06:29:21.517Z,2.94
2018-12-19T06:31:48.500Z,2.62
2018-12-19T06:34:15.547Z,2.75
2018-12-19T06:36:42.529Z,2.75
2018-12-19T06:39:09.597Z,2.75
2018-12-19T06:41:36.631Z,2.75
2018-12-19T06:44:03.571Z,2.87
2018-12-19T06:46:30.520Z,3.00
2018-12-19T06:48:58.249Z,2.94
2018-12-19T06:51:25.262Z,2.94
2018-12-19T06:53:52.288Z,2.75
2018-12-19T06:56:19.262Z,2.81
2018-12-19T06:58:46.200Z,2.56
2018-12-19T07:01:13.243Z,2.50
2018-12-19T07:03:40.198Z,2.69
2018-12-19T07:06:07.218Z,2.69
2018-12-19T07:08:34.672Z,2.75
2018-12-19T07:11:01.724Z,2.75
2018-12-19T07:13:28.736Z,2.62
2018-12-19T07:15:55.678Z,2.69
2018-12-19T07:18:22.652Z,2.56
2018-12-19T07:20:49.721Z,2.69
2018-12-19T07:23:16.664Z,2.94
2018-12-19T07:25:43.775Z,2.44
2018-12-19T07:28:10.701Z,2.50
2018-12-19T07:30:37.679Z,2.44
2018-12-19T07:33:04.731Z,2.81
2018-12-19T07:35:31.699Z,2.50
2018-12-19T07:37:58.653Z,2.81
2018-12-19T07:40:25.657Z,2.56
2018-12-19T07:42:52.612Z,2.50
2018-12-19T07:45:19.618Z,2.56
2018-12-19T07:47:46.548Z,2.44
2018-12-19T07:50:13.525Z,2.75
2018-12-19T07:52:40.510Z,2.75
2018-12-19T07:55:07.575Z,2.94
2018-12-19T07:57:34.706Z,2.94
2018-12-19T08:00:01.768Z,2.50
2018-12-19T08:02:28.714Z,2.81
2018-12-19T08:04:55.649Z,2.50
2018-12-19T08:07:22.598Z,2.75
2018-12-19T08:09:49.569Z,2.94
2018-12-19T08:12:16.618Z,2.94
2018-12-19T08:14:43.715Z,2.69
2018-12-19T08:17:10.654Z,2.81
2018-12-19T08:19:37.663Z,2.94
2018-12-19T08:22:04.753Z,2.50
2018-12-19T08:24:32.563Z,3.06
2018-12-19T08:26:59.609Z,3.12
2018-12-19T08:29:29.323Z,2.81
2018-12-19T08:31:57.121Z,2.87
2018-12-19T08:34:25.113Z,2.69
2018-12-19T08:36:52.187Z,2.81
2018-12-19T08:39:19.392Z,2.94
2018-12-19T08:41:46.474Z,2.75
2018-12-19T08:44:13.510Z,2.87
2018-12-19T08:46:42.160Z,3.12
2018-12-19T08:49:09.269Z,3.12
2018-12-19T08:51:38.528Z,3.25
2018-12-19T08:54:05.488Z,3.19
2018-12-19T08:56:33.658Z,2.81
2018-12-19T08:59:00.911Z,3.31
2018-12-19T09:01:28.093Z,3.00
2018-12-19T09:03:55.128Z,2.94
2018-12-19T09:06:22.122Z,3.25
2018-12-19T09:08:49.108Z,3.31
2018-12-19T09:11:16.080Z,2.94
2018-12-19T09:13:43.161Z,3.19
2018-12-19T09:16:10.544Z,3.12
2018-12-19T09:18:38.173Z,2.94
2018-12-19T09:21:05.092Z,2.81
2018-12-19T09:23:33.270Z,2.75
2018-12-19T09:26:00.250Z,3.06
2018-12-19T09:28:27.183Z,3.06
2018-12-19T09:30:54.157Z,3.37
2018-12-19T09:33:27.158Z,3.31
2018-12-19T09:35:49.778Z,3.25
2018-12-19T09:38:16.823Z,3.06
2018-12-19T09:40:43.820Z,2.87
2018-12-19T09:43:10.894Z,3.12
2018-12-19T09:45:39.002Z,2.75
2018-12-19T09:48:06.052Z,3.25
2018-12-19T09:50:33.711Z,2.94
2018-12-19T09:53:01.286Z,3.31
2018-12-19T09:55:28.364Z,3.31
2018-12-19T09:57:55.348Z,3.56
2018-12-19T10:00:28.249Z,3.50
2018-12-19T10:03:04.141Z,3.37
2018-12-19T10:05:31.935Z,3.06
2018-12-19T10:07:58.869Z,3.37
2018-12-19T10:10:25.822Z,3.50
2018-12-19T10:12:52.854Z,3.37
2018-12-19T10:15:19.950Z,3.62
2018-12-19T10:17:46.913Z,3.31
2018-12-19T10:20:13.913Z,3.19
2018-12-19T10:22:41.669Z,3.19
2018-12-19T10:25:13.487Z,3.44
2018-12-19T10:27:40.653Z,3.50
2018-12-19T10:30:09.615Z,3.69
2018-12-19T10:32:38.940Z,3.81
2018-12-19T10:35:06.982Z,3.69
2018-12-19T10:37:33.922Z,3.62
2018-12-19T10:40:00.904Z,3.50
2018-12-19T10:42:28.026Z,3.62
2018-12-19T10:44:54.963Z,3.44
2018-12-19T10:47:21.927Z,3.50
2018-12-19T10:49:48.830Z,3.50
2018-12-19T10:52:15.818Z,3.87
2018-12-19T10:54:42.762Z,3.37
2018-12-19T10:57:09.715Z,3.69
2018-12-19T10:59:36.664Z,3.81
2018-12-19T11:02:03.639Z,3.62
2018-12-19T11:04:30.749Z,3.69
2018-12-19T11:06:57.696Z,3.37
2018-12-19T11:09:24.674Z,3.50
2018-12-19T11:11:51.664Z,3.87
2018-12-19T11:14:18.593Z,3.87
2018-12-19T11:16:45.603Z,3.81
2018-12-19T11:19:12.556Z,3.75
2018-12-19T11:21:39.632Z,3.87
2018-12-19T11:24:06.638Z,3.81
2018-12-19T11:26:34.214Z,3.87
2018-12-19T11:29:02.824Z,3.75
2018-12-19T11:31:28.256Z,4.00
2018-12-19T11:33:55.275Z,3.81
2018-12-19T11:36:22.265Z,4.12
2018-12-19T11:38:49.369Z,4.12
2018-12-19T11:41:16.583Z,3.69
2018-12-19T11:43:43.611Z,4.00
2018-12-19T11:46:10.609Z,4.00
2018-12-19T11:48:38.380Z,3.94
2018-12-19T11:51:05.423Z,3.87
2018-12-19T11:53:32.526Z,4.12
2018-12-19T11:56:00.228Z,3.94
2018-12-19T11:58:27.305Z,3.94
2018-12-19T12:00:54.459Z,4.12
2018-12-19T12:03:21.547Z,3.69
2018-12-19T12:05:48.654Z,4.00
2018-12-19T12:08:15.732Z,3.94
2018-12-19T12:10:42.839Z,3.62
2018-12-19T12:13:09.802Z,3.75
2018-12-19T12:15:36.794Z,4.00
2018-12-19T12:18:16.228Z,3.87
2018-12-19T12:20:43.389Z,3.87
2018-12-19T12:23:10.396Z,3.94
2018-12-19T12:25:37.457Z,4.19
2018-12-19T12:28:04.544Z,3.87
2018-12-19T12:30:31.782Z,4.19
2018-12-19T12:32:58.945Z,4.12
2018-12-19T12:35:25.972Z,4.19
2018-12-19T12:37:53.551Z,4.00
2018-12-19T12:40:20.630Z,4.06
2018-12-19T12:42:47.695Z,3.81
2018-12-19T12:45:14.674Z,4.00
2018-12-19T12:47:41.677Z,4.06
2018-12-19T12:50:08.771Z,3.87
2018-12-19T12:52:36.754Z,4.00
2018-12-19T12:55:04.000Z,4.19
2018-12-19T12:57:31.078Z,4.00
2018-12-19T12:59:58.245Z,4.19
2018-12-19T13:02:25.507Z,4.37
2018-12-19T13:04:53.218Z,4.06
2018-12-19T13:07:21.039Z,4.50
2018-12-19T13:09:48.258Z,4.25
2018-12-19T13:12:15.365Z,4.44
2018-12-19T13:14:46.041Z,4.25
2018-12-19T13:17:14.165Z,4.31
2018-12-19T13:19:42.162Z,4.12
2018-12-19T13:22:10.115Z,4.12
2018-12-19T13:24:37.190Z,4.44
2018-12-19T13:27:04.286Z,3.94
2018-12-19T13:29:31.580Z,4.19
2018-12-19T13:31:58.816Z,4.19
2018-12-19T13:34:25.924Z,4.19
2018-12-19T13:36:53.753Z,4.44
2018-12-19T13:39:22.759Z,4.50
2018-12-19T13:41:51.336Z,4.44
2018-12-19T13:44:19.133Z,4.50
2018-12-19T13:46:46.896Z,4.37
2018-12-19T13:49:14.442Z,4.37
2018-12-19T13:51:44.634Z,4.25
2018-12-19T13:54:12.410Z,4.44
2018-12-19T13:56:43.006Z,4.56
2018-12-19T13:59:12.191Z,4.62
2018-12-19T14:01:40.508Z,4.31
2018-12-19T14:04:08.909Z,4.19
2018-12-19T14:06:36.778Z,4.19
2018-12-19T14:09:06.446Z,4.31
2018-12-19T14:11:33.919Z,4.50
2018-12-19T14:14:01.615Z,4.31
2018-12-19T14:16:28.903Z,4.75
2018-12-19T14:18:56.397Z,4.44
2018-12-19T14:21:23.866Z,4.37
2018-12-19T14:23:53.986Z,4.37
2018-12-19T14:26:21.490Z,4.50
2018-12-19T14:28:48.780Z,4.37
2018-12-19T14:31:16.120Z,4.37
2018-12-19T14:33:43.709Z,4.50
2018-12-19T14:36:21.696Z,4.25
2018-12-19T14:39:04.586Z,4.62
2018-12-19T14:41:33.874Z,4.75
2018-12-19T14:44:01.543Z,4.31
2018-12-19T14:46:29.039Z,4.62
2018-12-19T14:48:56.416Z,4.25
2018-12-19T14:51:24.099Z,4.56
2018-12-19T14:53:54.826Z,4.56
2018-12-19T14:56:23.081Z,4.56
2018-12-19T14:58:50.456Z,4.37
2018-12-19T15:01:18.899Z,4.56
2018-12-19T15:03:48.826Z,4.50
2018-12-19T15:06:51.437Z,4.56
2018-12-19T15:09:45.709Z,4.37
2018-12-19T15:15:34.563Z,4.12
2018-12-19T15:31:45.589Z,4.44
2018-12-19T15:34:13.068Z,4.50
2018-12-19T15:36:40.625Z,4.31
2018-12-19T15:39:08.141Z,4.50
2018-12-19T15:41:35.435Z,4.50
2018-12-19T15:44:02.696Z,4.56
2018-12-19T15:49:13.267Z,4.37
2018-12-19T15:51:40.379Z,4.31
2018-12-19T15:54:07.841Z,4.69
2018-12-19T15:56:36.447Z,4.19
2018-12-19T15:59:03.638Z,4.50
2018-12-19T16:04:09.622Z,4.44
2018-12-19T16:06:37.604Z,4.69
2018-12-19T16:09:09.695Z,4.62
2018-12-19T16:11:39.017Z,4.44
2018-12-19T16:14:08.490Z,4.50
2018-12-19T16:16:39.039Z,4.44
2018-12-19T16:19:07.390Z,4.69
2018-12-19T16:21:39.434Z,4.62
2018-12-19T16:24:06.921Z,4.37
2018-12-19T16:26:35.560Z,4.62
2018-12-19T16:29:08.612Z,4.81
2018-12-19T16:31:39.480Z,4.56
2018-12-19T16:34:07.147Z,4.44
2018-12-19T16:36:35.233Z,4.62
2018-12-19T16:39:05.307Z,4.62
2018-12-19T16:41:33.090Z,4.69
2018-12-19T16:44:00.897Z,4.56
2018-12-19T16:46:30.076Z,4.62
2018-12-19T16:48:59.809Z,4.44
2018-12-19T16:51:28.549Z,4.44
2018-12-19T16:53:56.646Z,4.37
2018-12-19T16:56:25.207Z,4.62
2018-12-19T16:58:54.529Z,4.25
2018-12-19T17:01:21.823Z,4.62
2018-12-19T17:03:50.868Z,4.56
2018-12-19T17:06:17.916Z,4.56
2018-12-19T17:08:47.032Z,4.56
2018-12-19T17:11:14.833Z,4.50
2018-12-19T17:13:42.188Z,4.69
2018-12-19T17:16:09.683Z,4.50
2018-12-19T17:18:37.266Z,4.81
2018-12-19T17:21:05.662Z,4.62
2018-12-19T17:23:36.623Z,4.56
2018-12-19T17:26:04.639Z,4.81
2018-12-19T17:28:33.233Z,4.75
2018-12-19T17:31:01.171Z,4.94
2018-12-19T17:33:28.328Z,4.75
2018-12-19T17:35:55.848Z,4.69
2018-12-19T17:38:22.994Z,4.69
2018-12-19T17:40:50.146Z,4.62
2018-12-19T17:43:17.090Z,4.75
2018-12-19T17:56:38.529Z,4.87
2018-12-19T17:59:05.601Z,4.69
2018-12-19T18:01:33.299Z,4.56
2018-12-19T18:04:03.160Z,4.56
2018-12-19T18:06:30.155Z,4.75
2018-12-19T18:08:57.304Z,4.81
2018-12-19T18:11:24.281Z,4.62
2018-12-19T18:13:51.345Z,4.75
2018-12-19T18:16:18.404Z,4.81
2018-12-19T18:18:45.530Z,4.75
2018-12-19T18:21:12.716Z,4.62
2018-12-19T18:23:44.398Z,4.56
2018-12-19T18:26:16.584Z,4.69
2018-12-19T18:28:44.188Z,4.62
2018-12-19T18:31:11.579Z,4.69
2018-12-19T18:33:39.131Z,4.62
2018-12-19T18:36:06.731Z,4.56
2018-12-19T18:38:34.398Z,4.62
2018-12-19T18:41:02.286Z,4.56
2018-12-19T18:43:31.093Z,4.87
2018-12-19T18:45:59.356Z,4.56
2018-12-19T18:48:26.833Z,4.62
2018-12-19T18:50:54.336Z,4.50
2018-12-19T18:56:04.196Z,4.81
2018-12-19T18:58:32.540Z,4.75
2018-12-19T19:01:07.806Z,4.81
2018-12-19T19:08:40.367Z,4.56
2018-12-19T19:11:11.478Z,4.75
2018-12-19T19:13:39.929Z,4.50
2018-12-19T19:16:07.740Z,4.50
2018-12-19T19:19:02.624Z,4.56
2018-12-19T19:21:30.131Z,4.44
2018-12-19T19:23:57.299Z,4.87
2018-12-19T19:26:24.514Z,4.62
2018-12-19T19:28:53.635Z,4.75
2018-12-19T19:31:21.397Z,4.69
2018-12-19T19:33:48.597Z,4.50
2018-12-19T19:36:15.870Z,4.50
2018-12-19T19:38:43.269Z,4.69
2018-12-19T19:46:33.825Z,4.62
2018-12-19T19:55:06.522Z,4.62
2018-12-19T19:57:36.772Z,4.62
2018-12-19T20:00:08.498Z,4.62
2018-12-19T20:02:36.891Z,4.75
2018-12-19T20:05:09.052Z,4.69
2018-12-19T20:07:36.304Z,4.56
2018-12-19T20:10:05.185Z,4.75
2018-12-19T20:12:32.405Z,4.62
2018-12-19T20:14:59.683Z,4.50
2018-12-19T20:17:28.677Z,4.75
2018-12-19T20:19:56.261Z,4.69
2018-12-19T20:22:23.373Z,4.62
2018-12-19T20:24:50.319Z,4.75
2018-12-19T20:27:18.924Z,4.56
2018-12-19T20:29:46.175Z,4.56
2018-12-19T20:32:13.239Z,4.75
2018-12-19T20:34:40.204Z,4.75
2018-12-19T20:37:07.187Z,4.62
2018-12-19T20:39:37.380Z,4.69
2018-12-19T20:42:04.948Z,4.62
2018-12-19T20:44:33.481Z,4.50
2018-12-19T20:47:00.607Z,4.56
2018-12-19T20:49:28.481Z,4.44
2018-12-19T20:51:56.031Z,4.69
2018-12-19T20:54:24.841Z,4.69
2018-12-19T20:56:52.258Z,4.69
2018-12-19T20:59:24.571Z,4.56
2018-12-19T21:01:55.477Z,4.50
2018-12-19T21:04:22.858Z,4.44
2018-12-19T21:06:51.096Z,4.62
2018-12-19T21:09:18.645Z,4.75
2018-12-19T21:11:48.629Z,4.62
2018-12-19T21:14:16.476Z,4.56
2018-12-19T21:16:49.899Z,4.62
2018-12-19T21:19:18.441Z,4.62
2018-12-19T21:21:46.311Z,4.69
2018-12-19T21:24:14.039Z,4.62
2018-12-19T21:26:41.572Z,4.87
2018-12-19T21:29:09.490Z,4.81
2018-12-19T21:31:37.850Z,4.75
2018-12-19T21:34:06.787Z,4.62
2018-12-19T21:36:35.101Z,4.62
2018-12-19T21:39:03.212Z,4.44
2018-12-19T21:41:30.282Z,4.56
2018-12-19T21:43:57.323Z,4.44
2018-12-19T21:46:24.650Z,4.50
2018-12-19T21:48:51.658Z,4.56
2018-12-19T21:51:18.692Z,4.56
2018-12-19T21:53:45.778Z,4.56
2018-12-19T21:56:12.791Z,4.69
2018-12-19T21:58:39.978Z,4.69
2018-12-19T22:01:07.075Z,4.56
2018-12-19T22:03:34.165Z,4.62
2018-12-19T22:06:01.165Z,4.44
2018-12-19T22:08:28.557Z,4.44
2018-12-19T22:10:55.538Z,4.50
2018-12-19T22:13:22.515Z,4.75
2018-12-19T22:15:49.629Z,4.62
2018-12-19T22:18:22.352Z,4.94
2018-12-19T22:20:53.081Z,4.69
2018-12-19T22:23:20.942Z,4.50
2018-12-19T22:25:51.746Z,4.62
2018-12-19T22:28:18.857Z,4.62
2018-12-19T22:30:45.836Z,4.50
2018-12-19T22:33:12.808Z,4.62
2018-12-19T22:35:39.848Z,4.69
2018-12-19T22:38:06.899Z,4.56
2018-12-19T22:40:34.862Z,4.62
2018-12-19T22:43:01.847Z,4.62
2018-12-19T22:45:29.240Z,4.81
2018-12-19T22:47:56.282Z,4.50
2018-12-19T22:50:23.354Z,4.56
2018-12-19T22:52:50.337Z,4.81
2018-12-19T22:55:18.745Z,4.37
2018-12-19T22:57:46.383Z,4.44
2018-12-19T23:00:16.779Z,4.44
2018-12-19T23:02:50.477Z,4.62
2018-12-19T23:05:22.998Z,4.62
2018-12-19T23:07:50.000Z,4.75
2018-12-19T23:10:17.040Z,4.62
2018-12-19T23:12:43.993Z,4.69
2018-12-19T23:15:12.040Z,4.56
2018-12-19T23:17:39.253Z,4.69
2018-12-19T23:20:07.184Z,4.62
2018-12-19T23:22:34.780Z,4.56
2018-12-19T23:25:01.852Z,4.87
2018-12-19T23:27:28.820Z,4.62
2018-12-19T23:29:56.462Z,4.56
2018-12-19T23:32:28.333Z,4.62
2018-12-19T23:34:56.084Z,4.81
2018-12-19T23:37:22.956Z,4.69
2018-12-19T23:39:50.058Z,4.75
2018-12-19T23:42:17.116Z,4.69
2018-12-19T23:44:45.122Z,4.75
2018-12-19T23:47:12.108Z,4.50
2018-12-19T23:49:39.120Z,4.37
2018-12-19T23:52:06.829Z,4.37
2018-12-19T23:54:33.768Z,4.75
2018-12-19T23:57:00.724Z,4.69
2018-12-19T23:59:27.698Z,4.62
